Terminal Aerodrome Forecast
Issued by NWS

Home | Current Version | Previous Version | Text Only | Print | Product List | Glossary On
Versions: 1 2 3 4 5 6 7 8 9 10 11 12 13 14 15 16 17 18 19 20 21
000
FTUS45 KSLC 251120
TAFBCE
TAF
KBCE 251120Z 2512/2612 05005KT P6SM VCSH BKN007 OVC020
     FM251500 18006KT P6SM VCSH SCT020 BKN050
     FM251800 23008KT P6SM -SHRA SCT060 BKN090
     FM252300 32010KT P6SM -SHRA SCT050 BKN090
     FM260300 27008KT P6SM VCSH SCT070 BKN120=

USA.gov is the U.S. government's official web portal to all federal, state and local government web resources and services.